sensor_id;sensor_type;location;lat;lon;timestamp;P1;durP1;ratioP1;P2;durP2;ratioP2
21624;SDS011;10974;51.034;3.744;2022-09-12T00:01:02;3.87;;;2.70;;
21624;SDS011;10974;51.034;3.744;2022-09-12T00:03:32;2.53;;;2.33;;
21624;SDS011;10974;51.034;3.744;2022-09-12T00:05:58;2.50;;;2.30;;
21624;SDS011;10974;51.034;3.744;2022-09-12T00:08:24;2.60;;;2.40;;
21624;SDS011;10974;51.034;3.744;2022-09-12T00:10:50;2.40;;;2.13;;
21624;SDS011;10974;51.034;3.744;2022-09-12T00:13:15;2.77;;;2.57;;
21624;SDS011;10974;51.034;3.744;2022-09-12T00:15:42;2.60;;;2.40;;
21624;SDS011;10974;51.034;3.744;2022-09-12T00:18:09;2.47;;;2.27;;
21624;SDS011;10974;51.034;3.744;2022-09-12T00:20:42;2.60;;;2.33;;
21624;SDS011;10974;51.034;3.744;2022-09-12T00:23:10;3.20;;;2.57;;
21624;SDS011;10974;51.034;3.744;2022-09-12T00:25:46;3.50;;;2.47;;
21624;SDS011;10974;51.034;3.744;2022-09-12T00:28:12;5.40;;;2.50;;
21624;SDS011;10974;51.034;3.744;2022-09-12T00:30:42;2.97;;;2.57;;
21624;SDS011;10974;51.034;3.744;2022-09-12T00:33:11;2.80;;;2.27;;
21624;SDS011;10974;51.034;3.744;2022-09-12T00:35:42;2.40;;;2.20;;
21624;SDS011;10974;51.034;3.744;2022-09-12T00:38:13;3.90;;;2.40;;
21624;SDS011;10974;51.034;3.744;2022-09-12T00:40:40;2.37;;;2.17;;
21624;SDS011;10974;51.034;3.744;2022-09-12T00:43:09;6.90;;;2.67;;
21624;SDS011;10974;51.034;3.744;2022-09-12T00:45:38;3.90;;;2.57;;
21624;SDS011;10974;51.034;3.744;2022-09-12T00:48:07;3.30;;;2.50;;
21624;SDS011;10974;51.034;3.744;2022-09-12T00:50:46;2.63;;;2.30;;
21624;SDS011;10974;51.034;3.744;2022-09-12T00:53:12;2.60;;;2.40;;
21624;SDS011;10974;51.034;3.744;2022-09-12T00:55:39;4.67;;;2.43;;
21624;SDS011;10974;51.034;3.744;2022-09-12T01:00:35;11.00;;;5.53;;
21624;SDS011;10974;51.034;3.744;2022-09-12T01:03:06;8.70;;;5.70;;
21624;SDS011;10974;51.034;3.744;2022-09-12T01:05:35;6.70;;;6.10;;
21624;SDS011;10974;51.034;3.744;2022-09-12T01:08:04;6.10;;;5.50;;
21624;SDS011;10974;51.034;3.744;2022-09-12T01:10:30;8.77;;;6.30;;
21624;SDS011;10974;51.034;3.744;2022-09-12T01:12:58;7.00;;;6.27;;
21624;SDS011;10974;51.034;3.744;2022-09-12T01:15:24;7.20;;;6.20;;
21624;SDS011;10974;51.034;3.744;2022-09-12T01:20:40;8.67;;;6.80;;
21624;SDS011;10974;51.034;3.744;2022-09-12T01:23:19;6.80;;;6.10;;
21624;SDS011;10974;51.034;3.744;2022-09-12T01:26:13;8.07;;;7.13;;
21624;SDS011;10974;51.034;3.744;2022-09-12T01:34:48;7.90;;;7.10;;
21624;SDS011;10974;51.034;3.744;2022-09-12T01:37:29;8.10;;;7.30;;
21624;SDS011;10974;51.034;3.744;2022-09-12T01:40:08;7.40;;;6.67;;
21624;SDS011;10974;51.034;3.744;2022-09-12T01:45:32;7.67;;;6.90;;
21624;SDS011;10974;51.034;3.744;2022-09-12T01:48:21;8.10;;;7.30;;
21624;SDS011;10974;51.034;3.744;2022-09-12T01:51:00;10.10;;;7.30;;
21624;SDS011;10974;51.034;3.744;2022-09-12T01:53:37;8.87;;;7.10;;
21624;SDS011;10974;51.034;3.744;2022-09-12T01:56:13;8.80;;;6.97;;
21624;SDS011;10974;51.034;3.744;2022-09-12T01:59:36;11.03;;;7.40;;
21624;SDS011;10974;51.034;3.744;2022-09-12T02:02:02;9.83;;;8.07;;
21624;SDS011;10974;51.034;3.744;2022-09-12T02:04:35;8.50;;;7.20;;
21624;SDS011;10974;51.034;3.744;2022-09-12T02:07:10;9.93;;;7.77;;
21624;SDS011;10974;51.034;3.744;2022-09-12T02:09:46;9.90;;;8.07;;
21624;SDS011;10974;51.034;3.744;2022-09-12T02:12:14;8.90;;;7.90;;
21624;SDS011;10974;51.034;3.744;2022-09-12T02:14:45;9.87;;;8.50;;
21624;SDS011;10974;51.034;3.744;2022-09-12T02:17:17;10.33;;;8.20;;
21624;SDS011;10974;51.034;3.744;2022-09-12T02:19:48;8.67;;;7.30;;
21624;SDS011;10974;51.034;3.744;2022-09-12T02:22:23;9.83;;;8.47;;
21624;SDS011;10974;51.034;3.744;2022-09-12T02:24:51;8.80;;;7.73;;
21624;SDS011;10974;51.034;3.744;2022-09-12T02:30:13;10.57;;;8.27;;
21624;SDS011;10974;51.034;3.744;2022-09-12T02:35:30;13.37;;;9.00;;
21624;SDS011;10974;51.034;3.744;2022-09-12T02:40:56;9.63;;;7.70;;
21624;SDS011;10974;51.034;3.744;2022-09-12T02:43:22;9.20;;;8.30;;
21624;SDS011;10974;51.034;3.744;2022-09-12T02:45:47;10.37;;;9.23;;
21624;SDS011;10974;51.034;3.744;2022-09-12T02:48:34;9.30;;;8.23;;
21624;SDS011;10974;51.034;3.744;2022-09-12T02:51:01;9.97;;;8.50;;
21624;SDS011;10974;51.034;3.744;2022-09-12T02:53:27;9.80;;;8.70;;
21624;SDS011;10974;51.034;3.744;2022-09-12T02:55:53;9.60;;;8.57;;
21624;SDS011;10974;51.034;3.744;2022-09-12T02:58:20;9.87;;;8.87;;
21624;SDS011;10974;51.034;3.744;2022-09-12T03:06:17;10.13;;;8.53;;
21624;SDS011;10974;51.034;3.744;2022-09-12T03:09:14;9.23;;;8.33;;
21624;SDS011;10974;51.034;3.744;2022-09-12T03:12:04;9.17;;;8.27;;
21624;SDS011;10974;51.034;3.744;2022-09-12T03:17:41;11.43;;;9.50;;
21624;SDS011;10974;51.034;3.744;2022-09-12T03:20:32;11.53;;;8.50;;
21624;SDS011;10974;51.034;3.744;2022-09-12T03:23:04;11.13;;;9.17;;
21624;SDS011;10974;51.034;3.744;2022-09-12T03:25:48;10.10;;;8.23;;
21624;SDS011;10974;51.034;3.744;2022-09-12T03:28:19;9.90;;;8.10;;
21624;SDS011;10974;51.034;3.744;2022-09-12T03:30:47;10.67;;;8.90;;
21624;SDS011;10974;51.034;3.744;2022-09-12T03:33:18;10.10;;;9.00;;
21624;SDS011;10974;51.034;3.744;2022-09-12T03:35:46;10.10;;;7.27;;
21624;SDS011;10974;51.034;3.744;2022-09-12T03:38:13;9.37;;;7.97;;
21624;SDS011;10974;51.034;3.744;2022-09-12T03:40:39;8.60;;;7.70;;
21624;SDS011;10974;51.034;3.744;2022-09-12T03:43:05;9.43;;;8.50;;
21624;SDS011;10974;51.034;3.744;2022-09-12T03:45:32;8.90;;;8.00;;
21624;SDS011;10974;51.034;3.744;2022-09-12T03:47:59;9.90;;;8.00;;
21624;SDS011;10974;51.034;3.744;2022-09-12T03:50:24;11.13;;;7.70;;
21624;SDS011;10974;51.034;3.744;2022-09-12T03:52:50;8.63;;;7.83;;
21624;SDS011;10974;51.034;3.744;2022-09-12T03:55:16;10.20;;;8.50;;
21624;SDS011;10974;51.034;3.744;2022-09-12T03:57:42;8.73;;;7.83;;
21624;SDS011;10974;51.034;3.744;2022-09-12T04:00:09;10.93;;;8.37;;
21624;SDS011;10974;51.034;3.744;2022-09-12T04:02:35;8.33;;;7.53;;
21624;SDS011;10974;51.034;3.744;2022-09-12T04:05:00;9.17;;;8.27;;
21624;SDS011;10974;51.034;3.744;2022-09-12T04:07:26;9.57;;;8.20;;
21624;SDS011;10974;51.034;3.744;2022-09-12T04:09:52;9.80;;;8.27;;
21624;SDS011;10974;51.034;3.744;2022-09-12T04:12:19;9.90;;;8.30;;
21624;SDS011;10974;51.034;3.744;2022-09-12T04:14:44;10.70;;;8.80;;
21624;SDS011;10974;51.034;3.744;2022-09-12T04:17:10;10.70;;;8.90;;
21624;SDS011;10974;51.034;3.744;2022-09-12T04:19:36;9.40;;;8.43;;
21624;SDS011;10974;51.034;3.744;2022-09-12T04:22:02;13.57;;;9.20;;
21624;SDS011;10974;51.034;3.744;2022-09-12T04:24:28;10.00;;;8.80;;
21624;SDS011;10974;51.034;3.744;2022-09-12T04:26:54;10.17;;;8.73;;
21624;SDS011;10974;51.034;3.744;2022-09-12T04:29:19;10.70;;;8.90;;
21624;SDS011;10974;51.034;3.744;2022-09-12T04:31:45;9.10;;;8.20;;
21624;SDS011;10974;51.034;3.744;2022-09-12T04:34:11;12.17;;;10.43;;
21624;SDS011;10974;51.034;3.744;2022-09-12T04:36:36;13.27;;;10.13;;
21624;SDS011;10974;51.034;3.744;2022-09-12T04:39:02;14.77;;;10.83;;
21624;SDS011;10974;51.034;3.744;2022-09-12T04:41:30;11.07;;;9.97;;
21624;SDS011;10974;51.034;3.744;2022-09-12T04:44:02;11.30;;;10.10;;
21624;SDS011;10974;51.034;3.744;2022-09-12T04:46:30;14.10;;;10.47;;
21624;SDS011;10974;51.034;3.744;2022-09-12T04:48:58;12.53;;;9.90;;
21624;SDS011;10974;51.034;3.744;2022-09-12T04:51:25;10.43;;;9.10;;
21624;SDS011;10974;51.034;3.744;2022-09-12T04:53:58;14.60;;;10.93;;
21624;SDS011;10974;51.034;3.744;2022-09-12T04:56:26;12.47;;;10.13;;
21624;SDS011;10974;51.034;3.744;2022-09-12T04:58:53;10.53;;;9.43;;
21624;SDS011;10974;51.034;3.744;2022-09-12T05:01:21;11.93;;;10.07;;
21624;SDS011;10974;51.034;3.744;2022-09-12T05:03:47;12.73;;;10.50;;
21624;SDS011;10974;51.034;3.744;2022-09-12T05:06:25;13.07;;;9.67;;
21624;SDS011;10974;51.034;3.744;2022-09-12T05:08:53;11.23;;;9.93;;
21624;SDS011;10974;51.034;3.744;2022-09-12T05:11:21;11.10;;;9.67;;
21624;SDS011;10974;51.034;3.744;2022-09-12T05:13:48;12.03;;;9.60;;
21624;SDS011;10974;51.034;3.744;2022-09-12T05:16:15;10.63;;;9.53;;
21624;SDS011;10974;51.034;3.744;2022-09-12T05:18:42;13.03;;;9.83;;
21624;SDS011;10974;51.034;3.744;2022-09-12T05:21:10;13.30;;;10.27;;
21624;SDS011;10974;51.034;3.744;2022-09-12T05:23:37;14.40;;;10.57;;
21624;SDS011;10974;51.034;3.744;2022-09-12T05:26:04;11.27;;;9.70;;
21624;SDS011;10974;51.034;3.744;2022-09-12T05:28:32;14.20;;;10.17;;
21624;SDS011;10974;51.034;3.744;2022-09-12T05:31:09;10.57;;;9.47;;
21624;SDS011;10974;51.034;3.744;2022-09-12T05:33:37;11.30;;;9.90;;
21624;SDS011;10974;51.034;3.744;2022-09-12T05:36:04;15.50;;;11.80;;
21624;SDS011;10974;51.034;3.744;2022-09-12T05:38:33;15.43;;;11.93;;
21624;SDS011;10974;51.034;3.744;2022-09-12T05:41:03;16.70;;;12.63;;
21624;SDS011;10974;51.034;3.744;2022-09-12T05:43:33;16.10;;;11.60;;
21624;SDS011;10974;51.034;3.744;2022-09-12T05:46:03;12.30;;;10.50;;
21624;SDS011;10974;51.034;3.744;2022-09-12T05:48:30;12.27;;;10.63;;
21624;SDS011;10974;51.034;3.744;2022-09-12T05:50:59;12.93;;;10.77;;
21624;SDS011;10974;51.034;3.744;2022-09-12T05:53:27;14.40;;;11.30;;
21624;SDS011;10974;51.034;3.744;2022-09-12T05:56:10;16.47;;;11.50;;
21624;SDS011;10974;51.034;3.744;2022-09-12T05:58:39;9.90;;;7.67;;
21624;SDS011;10974;51.034;3.744;2022-09-12T06:01:14;9.10;;;7.07;;
21624;SDS011;10974;51.034;3.744;2022-09-12T06:03:42;7.03;;;4.97;;
21624;SDS011;10974;51.034;3.744;2022-09-12T06:06:10;6.13;;;4.00;;
21624;SDS011;10974;51.034;3.744;2022-09-12T06:08:41;6.00;;;3.33;;
21624;SDS011;10974;51.034;3.744;2022-09-12T06:11:08;7.43;;;3.50;;
21624;SDS011;10974;51.034;3.744;2022-09-12T06:13:36;11.00;;;3.03;;
21624;SDS011;10974;51.034;3.744;2022-09-12T06:16:14;4.00;;;3.13;;
21624;SDS011;10974;51.034;3.744;2022-09-12T06:18:45;5.03;;;2.70;;
21624;SDS011;10974;51.034;3.744;2022-09-12T06:21:12;5.90;;;3.10;;
21624;SDS011;10974;51.034;3.744;2022-09-12T06:23:38;4.23;;;2.83;;
21624;SDS011;10974;51.034;3.744;2022-09-12T06:26:05;4.93;;;2.63;;
21624;SDS011;10974;51.034;3.744;2022-09-12T06:28:33;11.73;;;2.40;;
21624;SDS011;10974;51.034;3.744;2022-09-12T06:31:04;3.20;;;2.50;;
21624;SDS011;10974;51.034;3.744;2022-09-12T06:33:34;5.20;;;2.13;;
21624;SDS011;10974;51.034;3.744;2022-09-12T06:36:11;1.83;;;1.37;;
21624;SDS011;10974;51.034;3.744;2022-09-12T06:38:40;2.77;;;1.87;;
21624;SDS011;10974;51.034;3.744;2022-09-12T06:41:07;1.80;;;1.70;;
21624;SDS011;10974;51.034;3.744;2022-09-12T06:43:35;2.27;;;1.60;;
21624;SDS011;10974;51.034;3.744;2022-09-12T06:46:01;4.80;;;2.43;;
21624;SDS011;10974;51.034;3.744;2022-09-12T06:48:28;2.13;;;1.93;;
21624;SDS011;10974;51.034;3.744;2022-09-12T06:50:57;3.03;;;2.50;;
21624;SDS011;10974;51.034;3.744;2022-09-12T06:53:28;3.90;;;2.93;;
21624;SDS011;10974;51.034;3.744;2022-09-12T06:55:58;2.50;;;2.30;;
21624;SDS011;10974;51.034;3.744;2022-09-12T06:58:25;4.13;;;3.40;;
21624;SDS011;10974;51.034;3.744;2022-09-12T07:00:51;7.03;;;3.93;;
21624;SDS011;10974;51.034;3.744;2022-09-12T07:03:25;8.60;;;4.83;;
21624;SDS011;10974;51.034;3.744;2022-09-12T07:05:51;5.33;;;3.80;;
21624;SDS011;10974;51.034;3.744;2022-09-12T07:08:17;4.53;;;3.00;;
21624;SDS011;10974;51.034;3.744;2022-09-12T07:10:42;3.37;;;3.07;;
21624;SDS011;10974;51.034;3.744;2022-09-12T07:13:08;3.90;;;3.50;;
21624;SDS011;10974;51.034;3.744;2022-09-12T07:15:34;3.70;;;3.33;;
21624;SDS011;10974;51.034;3.744;2022-09-12T07:18:00;3.57;;;3.27;;
21624;SDS011;10974;51.034;3.744;2022-09-12T07:20:26;3.93;;;3.53;;
21624;SDS011;10974;51.034;3.744;2022-09-12T07:22:52;3.70;;;2.77;;
21624;SDS011;10974;51.034;3.744;2022-09-12T07:25:17;5.17;;;2.80;;
21624;SDS011;10974;51.034;3.744;2022-09-12T07:27:43;3.40;;;2.60;;
21624;SDS011;10974;51.034;3.744;2022-09-12T07:30:08;2.90;;;2.43;;
21624;SDS011;10974;51.034;3.744;2022-09-12T07:32:34;3.80;;;3.10;;
21624;SDS011;10974;51.034;3.744;2022-09-12T07:35:00;3.57;;;3.03;;
21624;SDS011;10974;51.034;3.744;2022-09-12T07:37:28;2.90;;;2.47;;
21624;SDS011;10974;51.034;3.744;2022-09-12T07:39:55;3.10;;;2.80;;
21624;SDS011;10974;51.034;3.744;2022-09-12T07:42:21;3.87;;;2.63;;
21624;SDS011;10974;51.034;3.744;2022-09-12T07:44:47;4.93;;;3.20;;
21624;SDS011;10974;51.034;3.744;2022-09-12T07:47:12;3.50;;;3.10;;
21624;SDS011;10974;51.034;3.744;2022-09-12T07:49:38;3.93;;;3.03;;
21624;SDS011;10974;51.034;3.744;2022-09-12T07:52:04;3.00;;;2.70;;
21624;SDS011;10974;51.034;3.744;2022-09-12T07:54:30;3.23;;;2.63;;
21624;SDS011;10974;51.034;3.744;2022-09-12T07:56:57;7.07;;;3.57;;
21624;SDS011;10974;51.034;3.744;2022-09-12T07:59:23;5.50;;;2.90;;
21624;SDS011;10974;51.034;3.744;2022-09-12T08:01:48;3.60;;;2.90;;
21624;SDS011;10974;51.034;3.744;2022-09-12T08:04:14;6.70;;;3.00;;
21624;SDS011;10974;51.034;3.744;2022-09-12T08:06:40;8.00;;;2.50;;
21624;SDS011;10974;51.034;3.744;2022-09-12T08:09:05;3.77;;;2.53;;
21624;SDS011;10974;51.034;3.744;2022-09-12T08:11:32;4.23;;;2.87;;
21624;SDS011;10974;51.034;3.744;2022-09-12T08:13:58;4.20;;;2.63;;
21624;SDS011;10974;51.034;3.744;2022-09-12T08:16:26;3.20;;;2.17;;
21624;SDS011;10974;51.034;3.744;2022-09-12T08:18:55;2.60;;;2.37;;
21624;SDS011;10974;51.034;3.744;2022-09-12T08:21:22;4.27;;;2.50;;
21624;SDS011;10974;51.034;3.744;2022-09-12T08:23:53;5.70;;;2.77;;
21624;SDS011;10974;51.034;3.744;2022-09-12T08:26:20;2.87;;;2.37;;
21624;SDS011;10974;51.034;3.744;2022-09-12T08:28:47;3.13;;;2.17;;
21624;SDS011;10974;51.034;3.744;2022-09-12T08:31:13;2.50;;;2.20;;
21624;SDS011;10974;51.034;3.744;2022-09-12T08:33:41;2.70;;;2.30;;
21624;SDS011;10974;51.034;3.744;2022-09-12T08:36:09;3.83;;;2.23;;
21624;SDS011;10974;51.034;3.744;2022-09-12T08:38:44;3.20;;;2.17;;
21624;SDS011;10974;51.034;3.744;2022-09-12T08:41:13;3.00;;;2.37;;
21624;SDS011;10974;51.034;3.744;2022-09-12T08:49:28;2.70;;;2.50;;
21624;SDS011;10974;51.034;3.744;2022-09-12T08:52:09;2.43;;;2.23;;
21624;SDS011;10974;51.034;3.744;2022-09-12T08:54:39;2.53;;;2.00;;
21624;SDS011;10974;51.034;3.744;2022-09-12T08:57:08;2.13;;;1.97;;
21624;SDS011;10974;51.034;3.744;2022-09-12T08:59:40;2.17;;;1.97;;
21624;SDS011;10974;51.034;3.744;2022-09-12T09:05:17;1.63;;;1.43;;
21624;SDS011;10974;51.034;3.744;2022-09-12T09:10:34;3.30;;;1.70;;
21624;SDS011;10974;51.034;3.744;2022-09-12T09:13:32;5.80;;;1.97;;
21624;SDS011;10974;51.034;3.744;2022-09-12T09:16:30;2.80;;;1.67;;
21624;SDS011;10974;51.034;3.744;2022-09-12T09:19:10;2.10;;;1.90;;
21624;SDS011;10974;51.034;3.744;2022-09-12T09:24:45;2.77;;;1.90;;
21624;SDS011;10974;51.034;3.744;2022-09-12T09:27:14;7.43;;;1.53;;
21624;SDS011;10974;51.034;3.744;2022-09-12T09:29:50;1.80;;;1.70;;
21624;SDS011;10974;51.034;3.744;2022-09-12T09:32:25;1.50;;;1.40;;
21624;SDS011;10974;51.034;3.744;2022-09-12T09:34:51;1.80;;;1.70;;
21624;SDS011;10974;51.034;3.744;2022-09-12T09:37:18;2.50;;;2.00;;
21624;SDS011;10974;51.034;3.744;2022-09-12T09:42:44;3.87;;;2.57;;
21624;SDS011;10974;51.034;3.744;2022-09-12T09:45:23;3.57;;;2.07;;
21624;SDS011;10974;51.034;3.744;2022-09-12T09:47:57;2.03;;;1.93;;
21624;SDS011;10974;51.034;3.744;2022-09-12T09:50:28;1.70;;;1.60;;
21624;SDS011;10974;51.034;3.744;2022-09-12T09:52:53;3.20;;;1.80;;
21624;SDS011;10974;51.034;3.744;2022-09-12T09:55:27;2.80;;;1.70;;
21624;SDS011;10974;51.034;3.744;2022-09-12T09:57:58;5.70;;;3.37;;
21624;SDS011;10974;51.034;3.744;2022-09-12T10:00:25;5.10;;;3.60;;
21624;SDS011;10974;51.034;3.744;2022-09-12T10:02:59;7.13;;;3.70;;
21624;SDS011;10974;51.034;3.744;2022-09-12T10:05:49;6.03;;;3.73;;
21624;SDS011;10974;51.034;3.744;2022-09-12T10:08:31;4.93;;;3.37;;
21624;SDS011;10974;51.034;3.744;2022-09-12T10:11:01;4.10;;;2.90;;
21624;SDS011;10974;51.034;3.744;2022-09-12T10:13:36;4.20;;;3.63;;
21624;SDS011;10974;51.034;3.744;2022-09-12T10:16:17;3.33;;;2.70;;
21624;SDS011;10974;51.034;3.744;2022-09-12T10:18:44;3.70;;;3.00;;
21624;SDS011;10974;51.034;3.744;2022-09-12T10:26:49;4.23;;;2.57;;
21624;SDS011;10974;51.034;3.744;2022-09-12T10:29:30;2.87;;;2.47;;
21624;SDS011;10974;51.034;3.744;2022-09-12T10:31:58;6.50;;;3.03;;
21624;SDS011;10974;51.034;3.744;2022-09-12T10:37:02;2.83;;;2.47;;
21624;SDS011;10974;51.034;3.744;2022-09-12T10:39:33;3.93;;;2.73;;
21624;SDS011;10974;51.034;3.744;2022-09-12T10:42:00;3.13;;;2.73;;
21624;SDS011;10974;51.034;3.744;2022-09-12T10:44:29;4.10;;;3.33;;
21624;SDS011;10974;51.034;3.744;2022-09-12T10:46:56;4.53;;;2.60;;
21624;SDS011;10974;51.034;3.744;2022-09-12T10:49:25;2.37;;;2.17;;
21624;SDS011;10974;51.034;3.744;2022-09-12T10:51:52;3.80;;;3.17;;
21624;SDS011;10974;51.034;3.744;2022-09-12T10:54:23;3.13;;;2.60;;
21624;SDS011;10974;51.034;3.744;2022-09-12T11:02:13;5.73;;;3.03;;
21624;SDS011;10974;51.034;3.744;2022-09-12T11:07:35;2.87;;;2.30;;
21624;SDS011;10974;51.034;3.744;2022-09-12T11:10:29;4.00;;;2.87;;
21624;SDS011;10974;51.034;3.744;2022-09-12T11:16:24;4.03;;;3.03;;
21624;SDS011;10974;51.034;3.744;2022-09-12T11:22:40;3.10;;;2.20;;
21624;SDS011;10974;51.034;3.744;2022-09-12T11:35:07;3.07;;;2.73;;
21624;SDS011;10974;51.034;3.744;2022-09-12T11:40:40;3.63;;;2.77;;
21624;SDS011;10974;51.034;3.744;2022-09-12T11:43:34;3.30;;;2.43;;
21624;SDS011;10974;51.034;3.744;2022-09-12T11:46:49;8.47;;;2.67;;
21624;SDS011;10974;51.034;3.744;2022-09-12T11:51:39;4.33;;;3.40;;
21624;SDS011;10974;51.034;3.744;2022-09-12T11:59:46;2.53;;;2.13;;
21624;SDS011;10974;51.034;3.744;2022-09-12T12:02:20;2.40;;;2.20;;
21624;SDS011;10974;51.034;3.744;2022-09-12T12:04:58;1.90;;;1.80;;
21624;SDS011;10974;51.034;3.744;2022-09-12T12:07:42;2.07;;;1.90;;
21624;SDS011;10974;51.034;3.744;2022-09-12T12:10:23;2.43;;;2.23;;
21624;SDS011;10974;51.034;3.744;2022-09-12T12:12:54;2.90;;;1.90;;
21624;SDS011;10974;51.034;3.744;2022-09-12T12:15:21;4.07;;;2.30;;
21624;SDS011;10974;51.034;3.744;2022-09-12T12:18:06;3.57;;;1.77;;
21624;SDS011;10974;51.034;3.744;2022-09-12T12:20:39;2.73;;;2.10;;
21624;SDS011;10974;51.034;3.744;2022-09-12T12:23:05;3.00;;;1.90;;
21624;SDS011;10974;51.034;3.744;2022-09-12T12:25:40;2.20;;;2.00;;
21624;SDS011;10974;51.034;3.744;2022-09-12T12:31:07;1.77;;;1.60;;
21624;SDS011;10974;51.034;3.744;2022-09-12T12:36:09;2.57;;;2.00;;
21624;SDS011;10974;51.034;3.744;2022-09-12T12:38:52;1.73;;;1.63;;
21624;SDS011;10974;51.034;3.744;2022-09-12T12:43:47;3.20;;;1.80;;
21624;SDS011;10974;51.034;3.744;2022-09-12T12:46:18;3.30;;;2.03;;
21624;SDS011;10974;51.034;3.744;2022-09-12T12:49:06;2.07;;;1.67;;
21624;SDS011;10974;51.034;3.744;2022-09-12T12:59:51;2.03;;;1.87;;
21624;SDS011;10974;51.034;3.744;2022-09-12T13:02:21;3.87;;;1.70;;
21624;SDS011;10974;51.034;3.744;2022-09-12T13:04:51;3.87;;;1.90;;
21624;SDS011;10974;51.034;3.744;2022-09-12T13:07:22;2.43;;;1.80;;
21624;SDS011;10974;51.034;3.744;2022-09-12T13:09:51;2.03;;;1.80;;
21624;SDS011;10974;51.034;3.744;2022-09-12T13:12:26;1.70;;;1.60;;
21624;SDS011;10974;51.034;3.744;2022-09-12T13:21:14;1.97;;;1.70;;
21624;SDS011;10974;51.034;3.744;2022-09-12T13:24:31;1.60;;;1.50;;
21624;SDS011;10974;51.034;3.744;2022-09-12T13:26:41;1.83;;;1.73;;
21624;SDS011;10974;51.034;3.744;2022-09-12T13:29:08;2.10;;;1.87;;
21624;SDS011;10974;51.034;3.744;2022-09-12T13:31:41;2.40;;;2.20;;
21624;SDS011;10974;51.034;3.744;2022-09-12T13:34:09;2.40;;;1.90;;
21624;SDS011;10974;51.034;3.744;2022-09-12T13:39:55;2.27;;;2.00;;
21624;SDS011;10974;51.034;3.744;2022-09-12T13:43:23;3.20;;;1.70;;
21624;SDS011;10974;51.034;3.744;2022-09-12T13:45:41;3.73;;;2.00;;
21624;SDS011;10974;51.034;3.744;2022-09-12T13:48:12;1.80;;;1.43;;
21624;SDS011;10974;51.034;3.744;2022-09-12T13:50:59;3.90;;;1.87;;
21624;SDS011;10974;51.034;3.744;2022-09-12T13:53:42;2.50;;;1.93;;
21624;SDS011;10974;51.034;3.744;2022-09-12T13:56:17;1.60;;;1.50;;
21624;SDS011;10974;51.034;3.744;2022-09-12T13:58:54;3.33;;;1.70;;
21624;SDS011;10974;51.034;3.744;2022-09-12T14:01:41;1.50;;;1.40;;
21624;SDS011;10974;51.034;3.744;2022-09-12T14:04:21;2.70;;;1.53;;
21624;SDS011;10974;51.034;3.744;2022-09-12T14:07:17;64.03;;;3.40;;
21624;SDS011;10974;51.034;3.744;2022-09-12T14:09:51;1.93;;;1.70;;
21624;SDS011;10974;51.034;3.744;2022-09-12T14:12:30;3.73;;;1.60;;
21624;SDS011;10974;51.034;3.744;2022-09-12T14:14:59;3.80;;;2.07;;
21624;SDS011;10974;51.034;3.744;2022-09-12T14:20:01;3.40;;;1.53;;
21624;SDS011;10974;51.034;3.744;2022-09-12T14:22:30;4.20;;;1.60;;
21624;SDS011;10974;51.034;3.744;2022-09-12T14:24:58;4.23;;;2.00;;
21624;SDS011;10974;51.034;3.744;2022-09-12T14:27:26;2.30;;;1.77;;
21624;SDS011;10974;51.034;3.744;2022-09-12T14:29:59;2.70;;;1.67;;
21624;SDS011;10974;51.034;3.744;2022-09-12T14:32:30;2.70;;;1.80;;
21624;SDS011;10974;51.034;3.744;2022-09-12T14:35:03;6.30;;;1.80;;
21624;SDS011;10974;51.034;3.744;2022-09-12T14:37:49;2.20;;;1.50;;
21624;SDS011;10974;51.034;3.744;2022-09-12T14:40:17;2.60;;;1.77;;
21624;SDS011;10974;51.034;3.744;2022-09-12T14:42:44;2.07;;;1.87;;
21624;SDS011;10974;51.034;3.744;2022-09-12T14:45:17;3.50;;;1.90;;
21624;SDS011;10974;51.034;3.744;2022-09-12T14:47:53;2.97;;;1.77;;
21624;SDS011;10974;51.034;3.744;2022-09-12T14:50:26;2.30;;;1.30;;
21624;SDS011;10974;51.034;3.744;2022-09-12T14:53:02;2.70;;;1.80;;
21624;SDS011;10974;51.034;3.744;2022-09-12T14:55:29;2.07;;;1.50;;
21624;SDS011;10974;51.034;3.744;2022-09-12T15:00:51;1.73;;;1.63;;
21624;SDS011;10974;51.034;3.744;2022-09-12T15:03:28;1.97;;;1.80;;
21624;SDS011;10974;51.034;3.744;2022-09-12T15:05:55;3.60;;;1.90;;
21624;SDS011;10974;51.034;3.744;2022-09-12T15:08:22;2.20;;;2.00;;
21624;SDS011;10974;51.034;3.744;2022-09-12T15:10:48;2.13;;;1.77;;
21624;SDS011;10974;51.034;3.744;2022-09-12T15:15:51;2.33;;;2.13;;
21624;SDS011;10974;51.034;3.744;2022-09-12T15:18:19;4.37;;;2.23;;
21624;SDS011;10974;51.034;3.744;2022-09-12T15:20:46;2.23;;;2.00;;
21624;SDS011;10974;51.034;3.744;2022-09-12T15:23:17;3.17;;;1.97;;
21624;SDS011;10974;51.034;3.744;2022-09-12T15:25:55;4.80;;;2.90;;
21624;SDS011;10974;51.034;3.744;2022-09-12T15:28:21;2.27;;;1.87;;
21624;SDS011;10974;51.034;3.744;2022-09-12T15:30:49;2.80;;;2.03;;
21624;SDS011;10974;51.034;3.744;2022-09-12T15:33:18;2.00;;;1.80;;
21624;SDS011;10974;51.034;3.744;2022-09-12T15:35:46;3.50;;;1.97;;
21624;SDS011;10974;51.034;3.744;2022-09-12T15:38:12;2.33;;;1.97;;
21624;SDS011;10974;51.034;3.744;2022-09-12T15:40:38;3.53;;;1.97;;
21624;SDS011;10974;51.034;3.744;2022-09-12T15:43:04;3.20;;;2.17;;
21624;SDS011;10974;51.034;3.744;2022-09-12T15:45:31;3.23;;;2.07;;
21624;SDS011;10974;51.034;3.744;2022-09-12T15:47:58;1.77;;;1.67;;
21624;SDS011;10974;51.034;3.744;2022-09-12T15:50:24;2.83;;;2.13;;
21624;SDS011;10974;51.034;3.744;2022-09-12T15:52:52;4.00;;;2.10;;
21624;SDS011;10974;51.034;3.744;2022-09-12T15:55:26;2.63;;;1.80;;
21624;SDS011;10974;51.034;3.744;2022-09-12T15:57:53;5.53;;;1.57;;
21624;SDS011;10974;51.034;3.744;2022-09-12T16:00:19;1.53;;;1.43;;
21624;SDS011;10974;51.034;3.744;2022-09-12T16:02:46;1.50;;;1.40;;
21624;SDS011;10974;51.034;3.744;2022-09-12T16:05:15;2.80;;;1.80;;
21624;SDS011;10974;51.034;3.744;2022-09-12T16:07:43;2.00;;;1.53;;
21624;SDS011;10974;51.034;3.744;2022-09-12T16:10:15;1.53;;;1.40;;
21624;SDS011;10974;51.034;3.744;2022-09-12T16:12:43;1.30;;;1.20;;
21624;SDS011;10974;51.034;3.744;2022-09-12T16:15:13;1.60;;;1.50;;
21624;SDS011;10974;51.034;3.744;2022-09-12T16:17:41;2.00;;;1.37;;
21624;SDS011;10974;51.034;3.744;2022-09-12T16:20:07;3.13;;;1.40;;
21624;SDS011;10974;51.034;3.744;2022-09-12T16:22:33;1.50;;;1.40;;
21624;SDS011;10974;51.034;3.744;2022-09-12T16:24:59;4.63;;;1.30;;
21624;SDS011;10974;51.034;3.744;2022-09-12T16:27:25;1.40;;;1.30;;
21624;SDS011;10974;51.034;3.744;2022-09-12T16:29:50;57.30;;;2.40;;
21624;SDS011;10974;51.034;3.744;2022-09-12T16:32:17;1.67;;;1.57;;
21624;SDS011;10974;51.034;3.744;2022-09-12T16:34:42;1.30;;;1.20;;
21624;SDS011;10974;51.034;3.744;2022-09-12T16:37:08;1.57;;;1.30;;
21624;SDS011;10974;51.034;3.744;2022-09-12T16:39:35;2.00;;;1.50;;
21624;SDS011;10974;51.034;3.744;2022-09-12T16:42:01;1.67;;;1.30;;
21624;SDS011;10974;51.034;3.744;2022-09-12T16:44:27;3.07;;;1.13;;
21624;SDS011;10974;51.034;3.744;2022-09-12T16:46:53;1.40;;;1.20;;
21624;SDS011;10974;51.034;3.744;2022-09-12T16:49:18;1.50;;;1.40;;
21624;SDS011;10974;51.034;3.744;2022-09-12T16:51:44;3.73;;;1.33;;
21624;SDS011;10974;51.034;3.744;2022-09-12T16:54:12;1.20;;;1.10;;
21624;SDS011;10974;51.034;3.744;2022-09-12T16:56:39;1.20;;;1.10;;
21624;SDS011;10974;51.034;3.744;2022-09-12T16:59:05;1.97;;;1.10;;
21624;SDS011;10974;51.034;3.744;2022-09-12T17:01:31;1.30;;;1.17;;
21624;SDS011;10974;51.034;3.744;2022-09-12T17:03:58;1.67;;;1.17;;
21624;SDS011;10974;51.034;3.744;2022-09-12T17:06:25;3.93;;;2.10;;
21624;SDS011;10974;51.034;3.744;2022-09-12T17:08:52;3.90;;;2.20;;
21624;SDS011;10974;51.034;3.744;2022-09-12T17:11:20;6.83;;;3.20;;
21624;SDS011;10974;51.034;3.744;2022-09-12T17:13:47;7.33;;;3.43;;